Home PIREPS Pireps

Flight BEL12218TR

  • Submitted By: AndrĂ© Vincent
  • Departure Airport: Donetzk (UKCC)
  • Arrival Airport: Franz Josef Strauss International Airport (EDDM)
  • Aircraft: YOUR CHOICE (YC)
  • Flight Time: 02.59
  • Date Submitted: 20/11/2017
  • Status: Accepted
Flight Details
Gross Revenue:
(25 load / € 0.00 per unit
€ 0.00
Fuel Cost:
(14931 fuel used @ 5.1 / unit)
€ 76,148.10

Additional Log Information:

View Log

Aircraft Used in flight is Boeing 737-800 sabena paint
09:29 Brakes are On
09:30 Brakes are Released
09:34 You Took off @ 204 Knots and Flaps at Position 2
Departure Weather
No METAR available for UKCC.
09:34 You are Airborne and your Beacons are off
09:34 You are Airborne and your Navigation Lights are off
09:34 Landing Gear Up @ 205 Knots and 850 Feet
12:21 Landing Gear Down @ 141 Knots and 3560 Feet
12:24 You Landed @ 106 Knots and with -400 Vertical Speed
Arrival Weather
EDDM 201050Z 26011KT CAVOK 04/M01 Q1022 NOSIGrn
12:28 Brakes are On
12:29 Brussels Bel-Track1.0.1.2

Route Map

Corporate About Us Our Team Vacancies Information Fleet Route Network Rules and Regulations Operations Flight Schedules Event Center Tours Partners IVAO Vatsim Acars dev FSCB

fb Users Online No pilots online!
0 Pilot(s) and 118 Guest(s) Online
CMS by phpVMS - Design by Crazycreatives.com - Copyright © 2018 - Brussels Airlines Virtual